sensor_id;sensor_type;location;lat;lon;timestamp;P1;durP1;ratioP1;P2;durP2;ratioP2
20271;SDS011;10295;49.812;9.866;2022-07-29T00:02:24;10.30;;;3.17;;
20271;SDS011;10295;49.812;9.866;2022-07-29T00:04:51;11.53;;;3.30;;
20271;SDS011;10295;49.812;9.866;2022-07-29T00:07:19;11.17;;;3.00;;
20271;SDS011;10295;49.812;9.866;2022-07-29T00:09:46;10.00;;;3.10;;
20271;SDS011;10295;49.812;9.866;2022-07-29T00:12:18;11.10;;;3.33;;
20271;SDS011;10295;49.812;9.866;2022-07-29T00:14:51;10.87;;;3.73;;
20271;SDS011;10295;49.812;9.866;2022-07-29T00:17:18;12.27;;;3.40;;
20271;SDS011;10295;49.812;9.866;2022-07-29T00:19:45;13.07;;;3.83;;
20271;SDS011;10295;49.812;9.866;2022-07-29T00:22:12;13.27;;;3.57;;
20271;SDS011;10295;49.812;9.866;2022-07-29T00:24:40;13.00;;;3.73;;
20271;SDS011;10295;49.812;9.866;2022-07-29T00:27:07;13.60;;;4.20;;
20271;SDS011;10295;49.812;9.866;2022-07-29T00:29:34;11.53;;;3.57;;
20271;SDS011;10295;49.812;9.866;2022-07-29T00:32:01;16.00;;;3.50;;
20271;SDS011;10295;49.812;9.866;2022-07-29T00:34:29;14.43;;;4.07;;
20271;SDS011;10295;49.812;9.866;2022-07-29T00:37:15;13.43;;;4.10;;
20271;SDS011;10295;49.812;9.866;2022-07-29T00:39:42;13.37;;;3.70;;
20271;SDS011;10295;49.812;9.866;2022-07-29T00:42:09;11.00;;;3.67;;
20271;SDS011;10295;49.812;9.866;2022-07-29T00:44:40;13.67;;;3.63;;
20271;SDS011;10295;49.812;9.866;2022-07-29T00:47:08;12.07;;;4.20;;
20271;SDS011;10295;49.812;9.866;2022-07-29T00:49:36;12.07;;;3.63;;
20271;SDS011;10295;49.812;9.866;2022-07-29T00:52:05;12.93;;;3.90;;
20271;SDS011;10295;49.812;9.866;2022-07-29T00:54:33;15.40;;;4.23;;
20271;SDS011;10295;49.812;9.866;2022-07-29T00:57:04;13.60;;;3.57;;
20271;SDS011;10295;49.812;9.866;2022-07-29T00:59:32;10.87;;;3.73;;
20271;SDS011;10295;49.812;9.866;2022-07-29T01:02:01;14.37;;;3.63;;
20271;SDS011;10295;49.812;9.866;2022-07-29T01:04:28;11.30;;;3.70;;
20271;SDS011;10295;49.812;9.866;2022-07-29T01:06:56;12.37;;;3.93;;
20271;SDS011;10295;49.812;9.866;2022-07-29T01:09:24;10.90;;;3.20;;
20271;SDS011;10295;49.812;9.866;2022-07-29T01:12:12;12.47;;;3.83;;
20271;SDS011;10295;49.812;9.866;2022-07-29T01:14:40;11.27;;;3.70;;
20271;SDS011;10295;49.812;9.866;2022-07-29T01:17:12;13.07;;;4.10;;
20271;SDS011;10295;49.812;9.866;2022-07-29T01:19:47;11.27;;;3.67;;
20271;SDS011;10295;49.812;9.866;2022-07-29T01:22:24;12.20;;;3.40;;
20271;SDS011;10295;49.812;9.866;2022-07-29T01:29:54;11.13;;;3.40;;
20271;SDS011;10295;49.812;9.866;2022-07-29T01:32:24;13.40;;;3.67;;
20271;SDS011;10295;49.812;9.866;2022-07-29T01:40:09;13.63;;;3.80;;
20271;SDS011;10295;49.812;9.866;2022-07-29T01:46:09;12.53;;;3.83;;
20271;SDS011;10295;49.812;9.866;2022-07-29T01:51:19;15.23;;;3.90;;
20271;SDS011;10295;49.812;9.866;2022-07-29T01:53:50;12.03;;;4.30;;
20271;SDS011;10295;49.812;9.866;2022-07-29T01:56:18;13.53;;;4.03;;
20271;SDS011;10295;49.812;9.866;2022-07-29T01:58:46;10.77;;;4.10;;
20271;SDS011;10295;49.812;9.866;2022-07-29T02:01:14;11.57;;;3.80;;
20271;SDS011;10295;49.812;9.866;2022-07-29T02:03:43;17.57;;;3.60;;
20271;SDS011;10295;49.812;9.866;2022-07-29T02:06:11;12.87;;;3.80;;
20271;SDS011;10295;49.812;9.866;2022-07-29T02:08:39;14.97;;;4.10;;
20271;SDS011;10295;49.812;9.866;2022-07-29T02:11:06;13.13;;;3.87;;
20271;SDS011;10295;49.812;9.866;2022-07-29T02:13:34;10.70;;;3.57;;
20271;SDS011;10295;49.812;9.866;2022-07-29T02:16:02;15.00;;;4.00;;
20271;SDS011;10295;49.812;9.866;2022-07-29T02:18:31;12.30;;;3.23;;
20271;SDS011;10295;49.812;9.866;2022-07-29T02:20:59;13.63;;;3.83;;
20271;SDS011;10295;49.812;9.866;2022-07-29T02:23:27;11.23;;;4.03;;
20271;SDS011;10295;49.812;9.866;2022-07-29T02:25:56;11.00;;;3.67;;
20271;SDS011;10295;49.812;9.866;2022-07-29T02:28:24;13.97;;;3.70;;
20271;SDS011;10295;49.812;9.866;2022-07-29T02:30:52;14.43;;;3.80;;
20271;SDS011;10295;49.812;9.866;2022-07-29T02:33:20;12.77;;;3.60;;
20271;SDS011;10295;49.812;9.866;2022-07-29T02:35:48;22.13;;;3.83;;
20271;SDS011;10295;49.812;9.866;2022-07-29T02:38:15;13.90;;;3.80;;
20271;SDS011;10295;49.812;9.866;2022-07-29T02:41:03;10.87;;;3.73;;
20271;SDS011;10295;49.812;9.866;2022-07-29T02:43:31;13.37;;;3.87;;
20271;SDS011;10295;49.812;9.866;2022-07-29T02:46:00;11.83;;;3.47;;
20271;SDS011;10295;49.812;9.866;2022-07-29T02:48:34;9.90;;;3.57;;
20271;SDS011;10295;49.812;9.866;2022-07-29T02:51:07;11.67;;;3.50;;
20271;SDS011;10295;49.812;9.866;2022-07-29T02:53:40;12.83;;;3.70;;
20271;SDS011;10295;49.812;9.866;2022-07-29T02:56:10;10.57;;;4.10;;
20271;SDS011;10295;49.812;9.866;2022-07-29T02:58:38;12.20;;;3.63;;
20271;SDS011;10295;49.812;9.866;2022-07-29T03:01:16;7.77;;;3.03;;
20271;SDS011;10295;49.812;9.866;2022-07-29T03:03:48;11.03;;;3.90;;
20271;SDS011;10295;49.812;9.866;2022-07-29T03:06:16;11.80;;;3.47;;
20271;SDS011;10295;49.812;9.866;2022-07-29T03:09:04;14.20;;;3.50;;
20271;SDS011;10295;49.812;9.866;2022-07-29T03:11:38;11.20;;;3.67;;
20271;SDS011;10295;49.812;9.866;2022-07-29T03:14:15;10.00;;;3.37;;
20271;SDS011;10295;49.812;9.866;2022-07-29T03:16:44;11.83;;;3.40;;
20271;SDS011;10295;49.812;9.866;2022-07-29T03:19:11;10.00;;;3.27;;
20271;SDS011;10295;49.812;9.866;2022-07-29T03:21:39;12.77;;;3.70;;
20271;SDS011;10295;49.812;9.866;2022-07-29T03:24:06;9.57;;;3.33;;
20271;SDS011;10295;49.812;9.866;2022-07-29T03:26:36;9.20;;;3.40;;
20271;SDS011;10295;49.812;9.866;2022-07-29T03:29:03;16.03;;;3.70;;
20271;SDS011;10295;49.812;9.866;2022-07-29T03:31:30;13.77;;;3.67;;
20271;SDS011;10295;49.812;9.866;2022-07-29T03:33:58;10.70;;;3.17;;
20271;SDS011;10295;49.812;9.866;2022-07-29T03:36:26;7.57;;;2.90;;
20271;SDS011;10295;49.812;9.866;2022-07-29T03:38:53;12.13;;;3.03;;
20271;SDS011;10295;49.812;9.866;2022-07-29T03:41:20;11.73;;;3.43;;
20271;SDS011;10295;49.812;9.866;2022-07-29T03:43:49;12.40;;;3.50;;
20271;SDS011;10295;49.812;9.866;2022-07-29T03:46:17;11.17;;;3.10;;
20271;SDS011;10295;49.812;9.866;2022-07-29T03:48:46;12.67;;;3.83;;
20271;SDS011;10295;49.812;9.866;2022-07-29T03:51:13;11.17;;;3.30;;
20271;SDS011;10295;49.812;9.866;2022-07-29T03:53:40;13.60;;;3.37;;
20271;SDS011;10295;49.812;9.866;2022-07-29T03:56:08;12.37;;;3.60;;
20271;SDS011;10295;49.812;9.866;2022-07-29T03:58:36;13.27;;;3.60;;
20271;SDS011;10295;49.812;9.866;2022-07-29T04:01:04;10.97;;;3.50;;
20271;SDS011;10295;49.812;9.866;2022-07-29T04:03:31;10.80;;;3.23;;
20271;SDS011;10295;49.812;9.866;2022-07-29T04:05:59;9.33;;;2.93;;
20271;SDS011;10295;49.812;9.866;2022-07-29T04:08:27;14.47;;;3.57;;
20271;SDS011;10295;49.812;9.866;2022-07-29T04:10:54;11.50;;;2.93;;
20271;SDS011;10295;49.812;9.866;2022-07-29T04:13:21;15.77;;;3.40;;
20271;SDS011;10295;49.812;9.866;2022-07-29T04:15:48;9.73;;;3.20;;
20271;SDS011;10295;49.812;9.866;2022-07-29T04:18:16;10.57;;;3.20;;
20271;SDS011;10295;49.812;9.866;2022-07-29T04:20:43;10.43;;;3.43;;
20271;SDS011;10295;49.812;9.866;2022-07-29T04:23:10;15.40;;;3.53;;
20271;SDS011;10295;49.812;9.866;2022-07-29T04:25:40;13.33;;;3.40;;
20271;SDS011;10295;49.812;9.866;2022-07-29T04:28:08;10.83;;;3.40;;
20271;SDS011;10295;49.812;9.866;2022-07-29T04:30:36;10.13;;;2.70;;
20271;SDS011;10295;49.812;9.866;2022-07-29T04:33:04;11.70;;;3.37;;
20271;SDS011;10295;49.812;9.866;2022-07-29T04:35:38;12.20;;;3.10;;
20271;SDS011;10295;49.812;9.866;2022-07-29T04:38:17;9.50;;;2.80;;
20271;SDS011;10295;49.812;9.866;2022-07-29T04:40:44;11.70;;;3.20;;
20271;SDS011;10295;49.812;9.866;2022-07-29T04:43:12;9.50;;;3.30;;
20271;SDS011;10295;49.812;9.866;2022-07-29T04:45:40;9.27;;;3.53;;
20271;SDS011;10295;49.812;9.866;2022-07-29T04:48:08;10.93;;;3.70;;
20271;SDS011;10295;49.812;9.866;2022-07-29T04:50:37;15.17;;;3.30;;
20271;SDS011;10295;49.812;9.866;2022-07-29T04:53:05;10.37;;;3.80;;
20271;SDS011;10295;49.812;9.866;2022-07-29T04:55:32;9.13;;;3.47;;
20271;SDS011;10295;49.812;9.866;2022-07-29T04:58:03;10.90;;;3.57;;
20271;SDS011;10295;49.812;9.866;2022-07-29T05:00:31;10.93;;;3.38;;
20271;SDS011;10295;49.812;9.866;2022-07-29T05:02:59;10.77;;;3.50;;
20271;SDS011;10295;49.812;9.866;2022-07-29T05:05:26;11.13;;;3.33;;
20271;SDS011;10295;49.812;9.866;2022-07-29T05:07:53;13.52;;;3.10;;
20271;SDS011;10295;49.812;9.866;2022-07-29T05:10:21;12.57;;;3.38;;
20271;SDS011;10295;49.812;9.866;2022-07-29T05:12:48;8.55;;;3.50;;
20271;SDS011;10295;49.812;9.866;2022-07-29T05:15:15;10.27;;;3.25;;
20271;SDS011;10295;49.812;9.866;2022-07-29T05:17:44;11.27;;;3.35;;
20271;SDS011;10295;49.812;9.866;2022-07-29T05:20:11;10.30;;;3.33;;
20271;SDS011;10295;49.812;9.866;2022-07-29T05:22:38;10.68;;;3.42;;
20271;SDS011;10295;49.812;9.866;2022-07-29T05:25:05;10.25;;;3.83;;
20271;SDS011;10295;49.812;9.866;2022-07-29T05:27:35;10.15;;;3.33;;
20271;SDS011;10295;49.812;9.866;2022-07-29T05:30:02;9.40;;;3.25;;
20271;SDS011;10295;49.812;9.866;2022-07-29T05:32:30;10.30;;;3.25;;
20271;SDS011;10295;49.812;9.866;2022-07-29T05:34:57;12.57;;;3.28;;
20271;SDS011;10295;49.812;9.866;2022-07-29T05:37:25;10.82;;;3.08;;
20271;SDS011;10295;49.812;9.866;2022-07-29T05:39:52;9.93;;;3.10;;
20271;SDS011;10295;49.812;9.866;2022-07-29T05:42:22;10.88;;;3.35;;
20271;SDS011;10295;49.812;9.866;2022-07-29T05:44:49;7.35;;;2.67;;
20271;SDS011;10295;49.812;9.866;2022-07-29T05:47:16;8.07;;;2.90;;
20271;SDS011;10295;49.812;9.866;2022-07-29T05:49:44;11.65;;;3.33;;
20271;SDS011;10295;49.812;9.866;2022-07-29T05:52:12;11.73;;;3.22;;
20271;SDS011;10295;49.812;9.866;2022-07-29T05:54:39;15.48;;;3.65;;
20271;SDS011;10295;49.812;9.866;2022-07-29T05:57:06;14.82;;;3.88;;
20271;SDS011;10295;49.812;9.866;2022-07-29T05:59:36;14.43;;;3.42;;
20271;SDS011;10295;49.812;9.866;2022-07-29T06:02:04;12.88;;;3.58;;
20271;SDS011;10295;49.812;9.866;2022-07-29T06:04:32;13.82;;;3.20;;
20271;SDS011;10295;49.812;9.866;2022-07-29T06:06:59;12.02;;;3.53;;
20271;SDS011;10295;49.812;9.866;2022-07-29T06:09:27;9.95;;;3.08;;
20271;SDS011;10295;49.812;9.866;2022-07-29T06:11:55;10.85;;;3.10;;
20271;SDS011;10295;49.812;9.866;2022-07-29T06:14:22;11.23;;;3.30;;
20271;SDS011;10295;49.812;9.866;2022-07-29T06:16:49;10.60;;;3.72;;
20271;SDS011;10295;49.812;9.866;2022-07-29T06:19:16;10.70;;;3.50;;
20271;SDS011;10295;49.812;9.866;2022-07-29T06:21:44;9.45;;;2.83;;
20271;SDS011;10295;49.812;9.866;2022-07-29T06:24:11;11.35;;;3.70;;
20271;SDS011;10295;49.812;9.866;2022-07-29T06:26:39;14.15;;;3.38;;
20271;SDS011;10295;49.812;9.866;2022-07-29T06:29:07;15.93;;;3.65;;
20271;SDS011;10295;49.812;9.866;2022-07-29T06:31:34;13.40;;;3.50;;
20271;SDS011;10295;49.812;9.866;2022-07-29T06:34:01;16.38;;;3.40;;
20271;SDS011;10295;49.812;9.866;2022-07-29T06:36:30;12.90;;;3.65;;
20271;SDS011;10295;49.812;9.866;2022-07-29T06:38:57;17.15;;;3.30;;
20271;SDS011;10295;49.812;9.866;2022-07-29T06:41:24;11.07;;;3.05;;
20271;SDS011;10295;49.812;9.866;2022-07-29T06:43:52;14.30;;;3.10;;
20271;SDS011;10295;49.812;9.866;2022-07-29T06:46:20;17.38;;;3.30;;
20271;SDS011;10295;49.812;9.866;2022-07-29T06:48:48;12.88;;;3.25;;
20271;SDS011;10295;49.812;9.866;2022-07-29T06:51:15;15.18;;;3.05;;
20271;SDS011;10295;49.812;9.866;2022-07-29T06:53:48;16.63;;;3.05;;
20271;SDS011;10295;49.812;9.866;2022-07-29T06:56:25;18.90;;;3.10;;
20271;SDS011;10295;49.812;9.866;2022-07-29T06:58:53;10.55;;;2.88;;
20271;SDS011;10295;49.812;9.866;2022-07-29T07:01:20;7.57;;;2.40;;
20271;SDS011;10295;49.812;9.866;2022-07-29T07:03:47;16.83;;;3.08;;
20271;SDS011;10295;49.812;9.866;2022-07-29T07:06:15;10.18;;;2.85;;
20271;SDS011;10295;49.812;9.866;2022-07-29T07:08:42;12.00;;;2.95;;
20271;SDS011;10295;49.812;9.866;2022-07-29T07:11:09;16.70;;;3.25;;
20271;SDS011;10295;49.812;9.866;2022-07-29T07:13:37;11.32;;;2.53;;
20271;SDS011;10295;49.812;9.866;2022-07-29T07:16:04;9.13;;;2.40;;
20271;SDS011;10295;49.812;9.866;2022-07-29T07:18:32;10.18;;;2.55;;
20271;SDS011;10295;49.812;9.866;2022-07-29T07:20:59;8.80;;;2.50;;
20271;SDS011;10295;49.812;9.866;2022-07-29T07:23:26;10.20;;;2.63;;
20271;SDS011;10295;49.812;9.866;2022-07-29T07:25:53;15.32;;;3.10;;
20271;SDS011;10295;49.812;9.866;2022-07-29T07:28:20;9.32;;;2.88;;
20271;SDS011;10295;49.812;9.866;2022-07-29T07:30:50;11.45;;;2.90;;
20271;SDS011;10295;49.812;9.866;2022-07-29T07:33:17;9.85;;;2.65;;
20271;SDS011;10295;49.812;9.866;2022-07-29T07:35:44;12.75;;;3.15;;
20271;SDS011;10295;49.812;9.866;2022-07-29T07:38:12;10.13;;;3.00;;
20271;SDS011;10295;49.812;9.866;2022-07-29T07:40:39;9.75;;;2.88;;
20271;SDS011;10295;49.812;9.866;2022-07-29T07:43:06;9.30;;;2.58;;
20271;SDS011;10295;49.812;9.866;2022-07-29T07:45:33;9.93;;;2.70;;
20271;SDS011;10295;49.812;9.866;2022-07-29T07:48:03;12.20;;;2.72;;
20271;SDS011;10295;49.812;9.866;2022-07-29T07:50:30;13.90;;;2.88;;
20271;SDS011;10295;49.812;9.866;2022-07-29T07:52:58;13.10;;;3.10;;
20271;SDS011;10295;49.812;9.866;2022-07-29T07:55:28;10.15;;;2.78;;
20271;SDS011;10295;49.812;9.866;2022-07-29T07:58:15;12.07;;;2.83;;
20271;SDS011;10295;49.812;9.866;2022-07-29T08:00:42;10.82;;;2.80;;
20271;SDS011;10295;49.812;9.866;2022-07-29T08:03:09;11.70;;;2.80;;
20271;SDS011;10295;49.812;9.866;2022-07-29T08:05:42;14.55;;;3.10;;
20271;SDS011;10295;49.812;9.866;2022-07-29T08:08:10;12.38;;;2.90;;
20271;SDS011;10295;49.812;9.866;2022-07-29T08:10:37;9.40;;;2.58;;
20271;SDS011;10295;49.812;9.866;2022-07-29T08:13:20;9.75;;;2.80;;
20271;SDS011;10295;49.812;9.866;2022-07-29T08:15:47;10.43;;;2.60;;
20271;SDS011;10295;49.812;9.866;2022-07-29T08:18:23;9.95;;;2.75;;
20271;SDS011;10295;49.812;9.866;2022-07-29T08:20:51;7.65;;;2.75;;
20271;SDS011;10295;49.812;9.866;2022-07-29T08:23:18;11.82;;;2.97;;
20271;SDS011;10295;49.812;9.866;2022-07-29T08:25:45;11.30;;;3.05;;
20271;SDS011;10295;49.812;9.866;2022-07-29T08:28:15;8.32;;;2.53;;
20271;SDS011;10295;49.812;9.866;2022-07-29T08:30:42;9.73;;;2.55;;
20271;SDS011;10295;49.812;9.866;2022-07-29T08:33:10;10.00;;;2.47;;
20271;SDS011;10295;49.812;9.866;2022-07-29T08:35:38;6.75;;;2.35;;
20271;SDS011;10295;49.812;9.866;2022-07-29T08:38:05;11.48;;;2.80;;
20271;SDS011;10295;49.812;9.866;2022-07-29T08:40:32;7.97;;;2.80;;
20271;SDS011;10295;49.812;9.866;2022-07-29T08:43:09;8.85;;;2.72;;
20271;SDS011;10295;49.812;9.866;2022-07-29T08:45:45;10.93;;;2.72;;
20271;SDS011;10295;49.812;9.866;2022-07-29T08:48:20;16.90;;;2.90;;
20271;SDS011;10295;49.812;9.866;2022-07-29T08:50:48;12.57;;;3.08;;
20271;SDS011;10295;49.812;9.866;2022-07-29T08:53:17;10.93;;;2.70;;
20271;SDS011;10295;49.812;9.866;2022-07-29T08:55:45;11.10;;;2.78;;
20271;SDS011;10295;49.812;9.866;2022-07-29T08:58:13;10.73;;;2.75;;
20271;SDS011;10295;49.812;9.866;2022-07-29T09:00:42;11.85;;;3.03;;
20271;SDS011;10295;49.812;9.866;2022-07-29T09:03:11;9.25;;;2.72;;
20271;SDS011;10295;49.812;9.866;2022-07-29T09:05:40;10.32;;;2.65;;
20271;SDS011;10295;49.812;9.866;2022-07-29T09:08:13;5.82;;;2.35;;
20271;SDS011;10295;49.812;9.866;2022-07-29T09:10:40;8.57;;;2.45;;
20271;SDS011;10295;49.812;9.866;2022-07-29T09:13:08;15.88;;;3.03;;
20271;SDS011;10295;49.812;9.866;2022-07-29T09:15:35;10.93;;;2.72;;
20271;SDS011;10295;49.812;9.866;2022-07-29T09:18:02;8.93;;;2.53;;
20271;SDS011;10295;49.812;9.866;2022-07-29T09:20:29;8.60;;;2.85;;
20271;SDS011;10295;49.812;9.866;2022-07-29T09:23:15;11.45;;;2.85;;
20271;SDS011;10295;49.812;9.866;2022-07-29T09:25:49;13.35;;;2.80;;
20271;SDS011;10295;49.812;9.866;2022-07-29T09:28:17;8.05;;;2.60;;
20271;SDS011;10295;49.812;9.866;2022-07-29T09:33:18;11.73;;;3.00;;
20271;SDS011;10295;49.812;9.866;2022-07-29T09:35:45;7.50;;;2.55;;
20271;SDS011;10295;49.812;9.866;2022-07-29T09:38:22;10.85;;;2.85;;
20271;SDS011;10295;49.812;9.866;2022-07-29T09:40:59;17.42;;;3.15;;
20271;SDS011;10295;49.812;9.866;2022-07-29T09:43:31;100.95;;;7.15;;
20271;SDS011;10295;49.812;9.866;2022-07-29T09:46:14;24.00;;;3.50;;
20271;SDS011;10295;49.812;9.866;2022-07-29T09:48:41;12.88;;;3.22;;
20271;SDS011;10295;49.812;9.866;2022-07-29T09:51:18;17.40;;;3.75;;
20271;SDS011;10295;49.812;9.866;2022-07-29T09:53:53;12.93;;;3.70;;
20271;SDS011;10295;49.812;9.866;2022-07-29T09:56:25;14.13;;;3.88;;
20271;SDS011;10295;49.812;9.866;2022-07-29T09:59:05;19.98;;;4.50;;
20271;SDS011;10295;49.812;9.866;2022-07-29T10:01:32;11.20;;;4.25;;
20271;SDS011;10295;49.812;9.866;2022-07-29T10:04:00;13.32;;;4.43;;
20271;SDS011;10295;49.812;9.866;2022-07-29T10:06:27;14.05;;;4.75;;
20271;SDS011;10295;49.812;9.866;2022-07-29T10:08:55;10.95;;;4.60;;
20271;SDS011;10295;49.812;9.866;2022-07-29T10:11:33;11.75;;;4.45;;
20271;SDS011;10295;49.812;9.866;2022-07-29T10:14:20;9.85;;;4.45;;
20271;SDS011;10295;49.812;9.866;2022-07-29T10:16:47;11.85;;;4.90;;
20271;SDS011;10295;49.812;9.866;2022-07-29T10:19:14;14.75;;;4.97;;
20271;SDS011;10295;49.812;9.866;2022-07-29T10:21:42;10.63;;;4.30;;
20271;SDS011;10295;49.812;9.866;2022-07-29T10:24:10;11.90;;;4.28;;
20271;SDS011;10295;49.812;9.866;2022-07-29T10:26:40;9.32;;;3.67;;
20271;SDS011;10295;49.812;9.866;2022-07-29T10:29:07;12.68;;;3.85;;
20271;SDS011;10295;49.812;9.866;2022-07-29T10:31:43;9.98;;;3.60;;
20271;SDS011;10295;49.812;9.866;2022-07-29T10:42:18;10.23;;;2.92;;
20271;SDS011;10295;49.812;9.866;2022-07-29T10:44:58;8.88;;;3.13;;
20271;SDS011;10295;49.812;9.866;2022-07-29T10:47:26;7.85;;;2.90;;
20271;SDS011;10295;49.812;9.866;2022-07-29T10:49:57;12.02;;;2.78;;
20271;SDS011;10295;49.812;9.866;2022-07-29T10:58:16;8.07;;;2.60;;
20271;SDS011;10295;49.812;9.866;2022-07-29T11:00:45;7.40;;;2.42;;
20271;SDS011;10295;49.812;9.866;2022-07-29T11:06:01;10.10;;;2.55;;
20271;SDS011;10295;49.812;9.866;2022-07-29T11:08:33;7.82;;;2.50;;
20271;SDS011;10295;49.812;9.866;2022-07-29T11:13:48;8.05;;;2.38;;
20271;SDS011;10295;49.812;9.866;2022-07-29T11:16:18;6.57;;;2.50;;
20271;SDS011;10295;49.812;9.866;2022-07-29T11:21:36;10.82;;;2.85;;
20271;SDS011;10295;49.812;9.866;2022-07-29T11:24:24;6.43;;;2.25;;
20271;SDS011;10295;49.812;9.866;2022-07-29T11:27:14;10.43;;;2.65;;
20271;SDS011;10295;49.812;9.866;2022-07-29T11:29:49;7.30;;;2.42;;
20271;SDS011;10295;49.812;9.866;2022-07-29T11:32:18;11.23;;;2.60;;
20271;SDS011;10295;49.812;9.866;2022-07-29T11:34:48;7.40;;;2.20;;
20271;SDS011;10295;49.812;9.866;2022-07-29T11:37:17;5.50;;;1.88;;
20271;SDS011;10295;49.812;9.866;2022-07-29T11:47:57;10.07;;;2.45;;
20271;SDS011;10295;49.812;9.866;2022-07-29T11:50:44;10.27;;;2.63;;
20271;SDS011;10295;49.812;9.866;2022-07-29T11:53:13;6.65;;;2.22;;
20271;SDS011;10295;49.812;9.866;2022-07-29T11:55:41;9.23;;;2.65;;
20271;SDS011;10295;49.812;9.866;2022-07-29T11:58:21;6.97;;;2.25;;
20271;SDS011;10295;49.812;9.866;2022-07-29T12:00:51;7.97;;;2.33;;
20271;SDS011;10295;49.812;9.866;2022-07-29T12:03:25;6.97;;;2.30;;
20271;SDS011;10295;49.812;9.866;2022-07-29T12:06:01;9.10;;;2.33;;
20271;SDS011;10295;49.812;9.866;2022-07-29T12:08:29;7.18;;;2.22;;
20271;SDS011;10295;49.812;9.866;2022-07-29T12:10:56;8.18;;;2.78;;
20271;SDS011;10295;49.812;9.866;2022-07-29T12:13:24;7.85;;;2.15;;
20271;SDS011;10295;49.812;9.866;2022-07-29T12:16:03;8.85;;;2.58;;
20271;SDS011;10295;49.812;9.866;2022-07-29T12:18:31;7.28;;;2.25;;
20271;SDS011;10295;49.812;9.866;2022-07-29T12:20:59;8.35;;;2.40;;
20271;SDS011;10295;49.812;9.866;2022-07-29T12:23:33;7.75;;;2.58;;
20271;SDS011;10295;49.812;9.866;2022-07-29T12:26:06;11.63;;;2.50;;
20271;SDS011;10295;49.812;9.866;2022-07-29T12:28:37;6.50;;;2.20;;
20271;SDS011;10295;49.812;9.866;2022-07-29T12:31:04;8.50;;;2.38;;
20271;SDS011;10295;49.812;9.866;2022-07-29T12:33:33;7.50;;;2.50;;
20271;SDS011;10295;49.812;9.866;2022-07-29T12:36:01;7.43;;;2.35;;
20271;SDS011;10295;49.812;9.866;2022-07-29T12:38:34;7.22;;;2.42;;
20271;SDS011;10295;49.812;9.866;2022-07-29T12:41:02;7.78;;;2.70;;
20271;SDS011;10295;49.812;9.866;2022-07-29T12:43:30;10.18;;;2.90;;
20271;SDS011;10295;49.812;9.866;2022-07-29T12:45:57;10.13;;;2.50;;
20271;SDS011;10295;49.812;9.866;2022-07-29T12:48:38;7.07;;;2.50;;
20271;SDS011;10295;49.812;9.866;2022-07-29T12:51:06;10.75;;;2.97;;
20271;SDS011;10295;49.812;9.866;2022-07-29T12:53:35;8.40;;;2.65;;
20271;SDS011;10295;49.812;9.866;2022-07-29T12:56:02;10.07;;;2.80;;
20271;SDS011;10295;49.812;9.866;2022-07-29T12:58:46;10.82;;;2.88;;
20271;SDS011;10295;49.812;9.866;2022-07-29T13:01:17;8.32;;;2.70;;
20271;SDS011;10295;49.812;9.866;2022-07-29T13:09:03;11.00;;;2.80;;
20271;SDS011;10295;49.812;9.866;2022-07-29T13:11:31;15.73;;;3.00;;
20271;SDS011;10295;49.812;9.866;2022-07-29T13:13:59;9.48;;;2.78;;
20271;SDS011;10295;49.812;9.866;2022-07-29T13:16:32;12.25;;;3.60;;
20271;SDS011;10295;49.812;9.866;2022-07-29T13:19:06;11.13;;;3.50;;
20271;SDS011;10295;49.812;9.866;2022-07-29T13:21:33;10.85;;;3.53;;
20271;SDS011;10295;49.812;9.866;2022-07-29T13:24:01;12.25;;;3.85;;
20271;SDS011;10295;49.812;9.866;2022-07-29T13:26:28;10.27;;;3.63;;
20271;SDS011;10295;49.812;9.866;2022-07-29T13:28:55;10.43;;;3.88;;
20271;SDS011;10295;49.812;9.866;2022-07-29T13:31:22;10.48;;;4.30;;
20271;SDS011;10295;49.812;9.866;2022-07-29T13:33:50;13.77;;;4.10;;
20271;SDS011;10295;49.812;9.866;2022-07-29T13:36:18;15.35;;;4.25;;
20271;SDS011;10295;49.812;9.866;2022-07-29T13:38:45;10.50;;;4.25;;
20271;SDS011;10295;49.812;9.866;2022-07-29T13:41:12;13.90;;;4.80;;
20271;SDS011;10295;49.812;9.866;2022-07-29T13:43:39;13.10;;;4.60;;
20271;SDS011;10295;49.812;9.866;2022-07-29T13:46:06;16.63;;;5.47;;
20271;SDS011;10295;49.812;9.866;2022-07-29T13:48:34;18.02;;;5.75;;
20271;SDS011;10295;49.812;9.866;2022-07-29T13:51:01;14.98;;;6.50;;
20271;SDS011;10295;49.812;9.866;2022-07-29T13:53:28;20.58;;;6.53;;
20271;SDS011;10295;49.812;9.866;2022-07-29T13:55:55;18.88;;;6.40;;
20271;SDS011;10295;49.812;9.866;2022-07-29T13:58:23;18.20;;;6.28;;
20271;SDS011;10295;49.812;9.866;2022-07-29T14:00:50;14.80;;;6.40;;
20271;SDS011;10295;49.812;9.866;2022-07-29T14:03:17;14.10;;;5.85;;
20271;SDS011;10295;49.812;9.866;2022-07-29T14:05:44;15.37;;;6.00;;
20271;SDS011;10295;49.812;9.866;2022-07-29T14:08:11;12.98;;;5.40;;
20271;SDS011;10295;49.812;9.866;2022-07-29T14:10:39;13.98;;;6.82;;
20271;SDS011;10295;49.812;9.866;2022-07-29T14:13:06;12.07;;;6.60;;
20271;SDS011;10295;49.812;9.866;2022-07-29T14:15:49;18.38;;;7.10;;
20271;SDS011;10295;49.812;9.866;2022-07-29T14:18:17;21.13;;;7.35;;
20271;SDS011;10295;49.812;9.866;2022-07-29T14:20:44;21.17;;;7.20;;
20271;SDS011;10295;49.812;9.866;2022-07-29T14:23:11;16.48;;;6.72;;
20271;SDS011;10295;49.812;9.866;2022-07-29T14:25:41;13.00;;;6.50;;
20271;SDS011;10295;49.812;9.866;2022-07-29T14:28:09;12.65;;;6.90;;
20271;SDS011;10295;49.812;9.866;2022-07-29T14:30:39;14.82;;;7.63;;
20271;SDS011;10295;49.812;9.866;2022-07-29T14:33:07;13.80;;;6.85;;
20271;SDS011;10295;49.812;9.866;2022-07-29T14:35:34;17.77;;;6.13;;
20271;SDS011;10295;49.812;9.866;2022-07-29T14:38:01;20.70;;;5.90;;
20271;SDS011;10295;49.812;9.866;2022-07-29T14:40:28;11.88;;;6.13;;
20271;SDS011;10295;49.812;9.866;2022-07-29T14:42:55;15.13;;;5.90;;
20271;SDS011;10295;49.812;9.866;2022-07-29T14:45:22;14.25;;;6.78;;
20271;SDS011;10295;49.812;9.866;2022-07-29T14:47:49;12.05;;;6.38;;
20271;SDS011;10295;49.812;9.866;2022-07-29T14:50:22;17.27;;;6.40;;
20271;SDS011;10295;49.812;9.866;2022-07-29T14:52:57;11.68;;;5.82;;
20271;SDS011;10295;49.812;9.866;2022-07-29T14:55:24;13.80;;;6.60;;
20271;SDS011;10295;49.812;9.866;2022-07-29T14:57:51;14.03;;;6.10;;
20271;SDS011;10295;49.812;9.866;2022-07-29T15:00:33;12.73;;;5.40;;
20271;SDS011;10295;49.812;9.866;2022-07-29T15:03:00;12.33;;;5.07;;
20271;SDS011;10295;49.812;9.866;2022-07-29T15:05:29;8.57;;;4.00;;
20271;SDS011;10295;49.812;9.866;2022-07-29T15:07:56;8.73;;;4.50;;
20271;SDS011;10295;49.812;9.866;2022-07-29T15:10:24;10.90;;;5.53;;
20271;SDS011;10295;49.812;9.866;2022-07-29T15:12:53;12.37;;;6.40;;
20271;SDS011;10295;49.812;9.866;2022-07-29T15:15:20;11.50;;;5.67;;
20271;SDS011;10295;49.812;9.866;2022-07-29T15:17:47;10.07;;;5.33;;
20271;SDS011;10295;49.812;9.866;2022-07-29T15:20:14;13.80;;;6.07;;
20271;SDS011;10295;49.812;9.866;2022-07-29T15:22:42;9.97;;;4.70;;
20271;SDS011;10295;49.812;9.866;2022-07-29T15:25:09;13.30;;;5.30;;
20271;SDS011;10295;49.812;9.866;2022-07-29T15:27:36;13.67;;;4.53;;
20271;SDS011;10295;49.812;9.866;2022-07-29T15:30:04;10.03;;;4.47;;
20271;SDS011;10295;49.812;9.866;2022-07-29T15:32:31;9.73;;;4.40;;
20271;SDS011;10295;49.812;9.866;2022-07-29T15:34:58;9.27;;;4.43;;
20271;SDS011;10295;49.812;9.866;2022-07-29T15:37:25;9.83;;;4.30;;
20271;SDS011;10295;49.812;9.866;2022-07-29T15:40:14;9.30;;;3.50;;
20271;SDS011;10295;49.812;9.866;2022-07-29T15:42:41;9.20;;;3.80;;
20271;SDS011;10295;49.812;9.866;2022-07-29T15:45:08;8.60;;;3.70;;
20271;SDS011;10295;49.812;9.866;2022-07-29T15:47:35;8.47;;;3.87;;